createdAt,value
2022-10-04T00:02:21.587Z,5.65
2022-10-04T00:05:24.284Z,5.64
2022-10-04T00:08:51.743Z,5.36
2022-10-04T00:11:50.076Z,5.36
2022-10-04T00:14:47.781Z,5.48
2022-10-04T00:17:44.881Z,5.55
2022-10-04T00:20:50.581Z,5.37
2022-10-04T00:23:48.171Z,5.40
2022-10-04T00:26:44.871Z,5.33
2022-10-04T00:29:42.559Z,5.25
2022-10-04T00:32:39.504Z,5.11
2022-10-04T00:35:36.204Z,5.23
2022-10-04T00:38:33.107Z,5.12
2022-10-04T00:41:51.762Z,5.13
2022-10-04T00:44:59.559Z,5.25
2022-10-04T00:48:11.530Z,5.20
2022-10-04T00:51:30.055Z,5.26
2022-10-04T00:54:43.401Z,5.03
2022-10-04T00:57:48.441Z,4.92
2022-10-04T01:00:48.368Z,5.22
2022-10-04T01:03:46.225Z,5.25
2022-10-04T01:06:44.397Z,5.35
2022-10-04T01:09:54.961Z,5.27
2022-10-04T01:13:13.430Z,5.25
2022-10-04T01:16:15.549Z,4.98
2022-10-04T01:19:29.954Z,5.14
2022-10-04T01:22:42.635Z,5.20
2022-10-04T01:25:50.821Z,5.05
2022-10-04T01:28:47.712Z,5.10
2022-10-04T01:31:50.813Z,5.14
2022-10-04T01:34:47.750Z,5.09
2022-10-04T01:37:44.648Z,5.18
2022-10-04T01:40:57.277Z,5.02
2022-10-04T01:44:01.366Z,5.03
2022-10-04T01:47:04.279Z,5.34
2022-10-04T01:50:20.147Z,5.20
2022-10-04T01:53:31.334Z,5.19
2022-10-04T01:56:39.206Z,4.97
2022-10-04T01:59:54.729Z,5.07
2022-10-04T02:03:00.494Z,5.03
2022-10-04T02:06:02.126Z,5.07
2022-10-04T02:08:59.271Z,5.03
2022-10-04T02:11:58.253Z,5.06
2022-10-04T02:14:57.104Z,4.97
2022-10-04T02:17:55.787Z,5.06
2022-10-04T02:20:54.258Z,5.17
2022-10-04T02:23:53.342Z,5.09
2022-10-04T02:26:54.179Z,5.06
2022-10-04T02:29:51.014Z,5.08
2022-10-04T02:32:57.698Z,5.07
2022-10-04T02:35:54.566Z,5.07
2022-10-04T02:39:18.179Z,4.97
2022-10-04T02:42:44.244Z,4.92
2022-10-04T02:45:52.209Z,4.89
2022-10-04T02:48:58.592Z,4.91
2022-10-04T02:52:04.057Z,5.14
2022-10-04T02:55:32.857Z,5.01
2022-10-04T02:58:32.129Z,5.17
2022-10-04T03:02:01.029Z,5.05
2022-10-04T03:05:10.554Z,5.09
2022-10-04T03:08:08.145Z,5.09
2022-10-04T03:11:05.878Z,4.98
2022-10-04T03:14:09.053Z,5.03
2022-10-04T03:17:07.312Z,4.97
2022-10-04T03:20:06.012Z,4.96
2022-10-04T03:23:04.283Z,5.02
2022-10-04T03:26:19.147Z,4.85
2022-10-04T03:29:18.150Z,4.94
2022-10-04T03:32:18.904Z,4.94
2022-10-04T03:35:37.397Z,4.89
2022-10-04T03:38:36.212Z,5.05
2022-10-04T03:41:34.445Z,5.01
2022-10-04T03:44:32.240Z,5.22
2022-10-04T03:47:37.668Z,5.33
2022-10-04T03:50:47.019Z,5.11
2022-10-04T03:53:47.653Z,5.35
2022-10-04T03:56:45.682Z,5.19
2022-10-04T03:59:43.248Z,5.13
2022-10-04T04:02:50.836Z,5.37
2022-10-04T04:05:54.608Z,5.47
2022-10-04T04:08:55.309Z,5.31
2022-10-04T04:11:56.323Z,5.18
2022-10-04T04:14:54.255Z,5.08
2022-10-04T04:17:56.120Z,5.12
2022-10-04T04:20:59.072Z,5.17
2022-10-04T04:24:02.751Z,5.32
2022-10-04T04:27:05.228Z,5.37
2022-10-04T04:30:06.279Z,5.46
2022-10-04T04:33:12.461Z,5.29
2022-10-04T04:36:14.521Z,5.37
2022-10-04T04:39:43.781Z,5.56
2022-10-04T04:42:40.846Z,5.33
2022-10-04T04:45:38.560Z,5.32
2022-10-04T04:48:36.513Z,5.35
2022-10-04T04:51:33.725Z,5.33
2022-10-04T04:54:30.775Z,5.36
2022-10-04T04:57:27.860Z,5.35
2022-10-04T05:00:32.830Z,5.47
2022-10-04T05:03:34.090Z,5.58
2022-10-04T05:06:33.185Z,5.51
2022-10-04T05:09:41.407Z,5.72
2022-10-04T05:12:38.299Z,5.92
2022-10-04T05:15:40.072Z,5.79
2022-10-04T05:18:37.230Z,5.66
2022-10-04T05:21:40.778Z,5.57
2022-10-04T05:24:46.099Z,5.67
2022-10-04T05:27:45.405Z,5.83
2022-10-04T05:31:17.235Z,5.91
2022-10-04T05:34:31.775Z,5.95
2022-10-04T05:37:55.236Z,6.01
2022-10-04T05:41:05.021Z,5.97
2022-10-04T05:44:02.499Z,6.04
2022-10-04T05:47:01.455Z,6.03
2022-10-04T05:50:00.017Z,6.08
2022-10-04T05:53:35.657Z,5.90
2022-10-04T05:56:48.846Z,5.61
2022-10-04T06:00:14.666Z,5.59
2022-10-04T06:03:52.362Z,5.83
2022-10-04T06:07:14.947Z,5.67
2022-10-04T06:10:17.387Z,5.80
2022-10-04T06:14:05.321Z,5.98
2022-10-04T06:17:43.201Z,6.16
2022-10-04T06:20:58.557Z,6.18
2022-10-04T06:24:11.286Z,6.27
2022-10-04T06:27:27.717Z,6.35
2022-10-04T06:30:25.194Z,6.28
2022-10-04T06:33:33.648Z,6.16
2022-10-04T06:37:01.181Z,6.07
2022-10-04T06:40:29.240Z,5.92
2022-10-04T06:43:47.162Z,6.12
2022-10-04T06:47:13.365Z,6.18
2022-10-04T06:50:48.203Z,6.24
2022-10-04T06:54:27.494Z,6.57
2022-10-04T06:57:38.962Z,6.59
2022-10-04T07:00:54.349Z,6.74
2022-10-04T07:04:20.254Z,6.92
2022-10-04T07:07:35.449Z,6.88
2022-10-04T07:10:56.613Z,6.91
2022-10-04T07:14:13.055Z,7.12
2022-10-04T07:17:22.330Z,7.08
2022-10-04T07:20:33.936Z,7.31
2022-10-04T07:23:44.059Z,7.37
2022-10-04T07:26:50.567Z,7.45
2022-10-04T07:29:55.818Z,7.29
2022-10-04T07:32:57.787Z,7.46
2022-10-04T07:36:12.524Z,7.59
2022-10-04T07:39:59.452Z,7.65
2022-10-04T07:43:19.702Z,7.71
2022-10-04T07:46:59.737Z,7.83
2022-10-04T07:49:58.244Z,7.77
2022-10-04T07:53:15.290Z,7.74
2022-10-04T07:56:23.199Z,7.85
2022-10-04T07:59:34.862Z,7.82
2022-10-04T08:02:58.997Z,8.04
2022-10-04T08:06:12.052Z,7.96
2022-10-04T08:10:14.397Z,7.89
2022-10-04T08:13:50.228Z,8.05
2022-10-04T08:17:15.403Z,8.27
2022-10-04T08:20:42.412Z,8.40
2022-10-04T08:24:20.054Z,8.38
2022-10-04T08:28:08.673Z,8.61
2022-10-04T08:31:44.582Z,8.46
2022-10-04T08:35:34.263Z,8.94
2022-10-04T08:38:49.131Z,8.99
2022-10-04T08:42:15.300Z,9.19
2022-10-04T08:45:38.115Z,9.44
2022-10-04T08:49:01.773Z,9.13
2022-10-04T08:52:45.934Z,9.40
2022-10-04T08:56:32.259Z,9.64
2022-10-04T08:59:49.767Z,9.37
2022-10-04T09:03:31.142Z,10.00
2022-10-04T09:06:38.206Z,9.80
2022-10-04T09:10:24.910Z,10.18
2022-10-04T09:13:55.397Z,10.28
2022-10-04T09:17:39.637Z,10.14
2022-10-04T09:21:10.861Z,10.17
2022-10-04T09:25:09.059Z,10.18
2022-10-04T09:28:44.677Z,10.50
2022-10-04T09:32:19.834Z,10.11
2022-10-04T09:35:36.368Z,10.05
2022-10-04T09:39:30.101Z,9.86
2022-10-04T09:43:29.546Z,10.22
2022-10-04T09:47:05.006Z,10.03
2022-10-04T09:50:40.059Z,10.35
2022-10-04T09:54:11.676Z,10.33
2022-10-04T09:57:53.582Z,10.16
2022-10-04T10:01:15.184Z,9.91
2022-10-04T10:05:00.190Z,10.25
2022-10-04T10:08:28.509Z,10.29
2022-10-04T10:12:12.428Z,10.65
2022-10-04T10:15:24.853Z,10.98
2022-10-04T10:19:26.140Z,10.45
2022-10-04T10:23:20.600Z,10.54
2022-10-04T10:26:58.147Z,11.23
2022-10-04T10:30:04.126Z,11.03
2022-10-04T10:33:00.888Z,12.06
2022-10-04T10:36:19.762Z,11.12
2022-10-04T10:40:00.036Z,11.23
2022-10-04T10:43:09.469Z,11.40
2022-10-04T10:47:03.203Z,10.97
2022-10-04T10:50:25.152Z,12.13
2022-10-04T10:54:16.003Z,11.74
2022-10-04T10:58:28.621Z,11.26
2022-10-04T11:02:17.952Z,11.43
2022-10-04T11:05:58.155Z,12.31
2022-10-04T11:09:34.953Z,12.61
2022-10-04T11:13:11.180Z,12.04
2022-10-04T11:16:51.902Z,13.07
2022-10-04T11:20:32.005Z,13.30
2022-10-04T11:24:02.328Z,11.92
2022-10-04T11:27:37.887Z,11.53
2022-10-04T11:31:01.385Z,13.28
2022-10-04T11:34:55.553Z,13.90
2022-10-04T11:38:23.115Z,14.18
2022-10-04T11:42:07.684Z,14.98
2022-10-04T11:45:40.393Z,14.88
2022-10-04T11:49:03.474Z,15.14
2022-10-04T11:52:36.939Z,14.20
2022-10-04T11:56:38.378Z,13.95
2022-10-04T12:00:22.597Z,14.27
2022-10-04T12:03:36.343Z,15.15
2022-10-04T12:07:26.684Z,15.49
2022-10-04T12:10:40.019Z,15.60
2022-10-04T12:14:26.361Z,15.93
2022-10-04T12:17:38.483Z,15.53
2022-10-04T12:21:12.581Z,15.34
2022-10-04T12:24:52.407Z,15.23
2022-10-04T12:28:21.548Z,14.61
2022-10-04T12:31:32.168Z,15.32
2022-10-04T12:35:00.106Z,14.87
2022-10-04T12:38:45.389Z,14.90
2022-10-04T12:42:06.462Z,15.44
2022-10-04T12:45:26.949Z,15.11
2022-10-04T12:48:48.941Z,14.26
2022-10-04T12:52:11.596Z,15.11
2022-10-04T12:55:48.550Z,14.96
2022-10-04T12:59:12.562Z,14.99
2022-10-04T13:02:30.755Z,14.84
2022-10-04T13:05:46.832Z,14.56
2022-10-04T13:09:14.196Z,15.14
2022-10-04T13:12:29.836Z,15.17
2022-10-04T13:19:23.232Z,14.76
2022-10-04T13:23:15.027Z,15.28
2022-10-04T13:26:44.259Z,14.54
2022-10-04T13:30:02.299Z,14.98
2022-10-04T13:33:50.199Z,15.16
2022-10-04T13:37:21.870Z,15.72
2022-10-04T13:40:39.675Z,15.24
2022-10-04T13:44:31.530Z,14.86
2022-10-04T13:48:21.970Z,14.34
2022-10-04T13:51:46.844Z,14.26
2022-10-04T13:55:25.799Z,14.69
2022-10-04T13:59:00.794Z,15.15
2022-10-04T14:02:23.686Z,14.19
2022-10-04T14:05:44.026Z,13.94
2022-10-04T14:09:35.614Z,14.29
2022-10-04T14:13:11.075Z,14.53
2022-10-04T14:16:49.915Z,14.56
2022-10-04T14:20:50.243Z,14.12
2022-10-04T14:24:34.375Z,14.43
2022-10-04T14:27:39.391Z,14.37
2022-10-04T14:31:13.720Z,14.12
2022-10-04T14:34:45.279Z,13.93
2022-10-04T14:38:24.506Z,13.88
2022-10-04T14:42:05.851Z,13.90
2022-10-04T14:45:49.277Z,13.68
2022-10-04T14:49:37.638Z,13.72
2022-10-04T14:53:10.139Z,13.65
2022-10-04T14:56:42.164Z,13.60
2022-10-04T15:00:10.588Z,14.15
2022-10-04T15:03:46.715Z,13.91
2022-10-04T15:07:00.484Z,13.56
2022-10-04T15:10:19.040Z,13.53
2022-10-04T15:13:25.398Z,13.62
2022-10-04T15:16:44.978Z,13.61
2022-10-04T15:20:05.052Z,13.50
2022-10-04T15:23:01.717Z,13.64
2022-10-04T15:26:19.498Z,13.55
2022-10-04T15:29:59.792Z,13.27
2022-10-04T15:33:20.604Z,13.33
2022-10-04T15:36:39.513Z,13.21
2022-10-04T15:40:16.488Z,12.74
2022-10-04T15:43:30.047Z,12.96
2022-10-04T15:47:09.849Z,12.85
2022-10-04T15:50:30.496Z,12.82
2022-10-04T15:53:52.426Z,12.57
2022-10-04T15:56:56.420Z,12.32
2022-10-04T16:00:15.176Z,12.20
2022-10-04T16:03:42.640Z,11.94
2022-10-04T16:06:46.976Z,11.67
2022-10-04T16:09:58.929Z,11.44
2022-10-04T16:13:19.545Z,11.38
2022-10-04T16:16:26.180Z,12.01
2022-10-04T16:20:20.001Z,11.47
2022-10-04T16:23:31.382Z,11.44
2022-10-04T16:26:33.761Z,11.17
2022-10-04T16:30:25.670Z,10.97
2022-10-04T16:33:42.418Z,10.92
2022-10-04T16:37:18.244Z,10.71
2022-10-04T16:40:56.980Z,10.70
2022-10-04T16:43:56.103Z,10.61
2022-10-04T16:46:55.679Z,10.50
2022-10-04T16:49:57.212Z,10.26
2022-10-04T16:53:21.503Z,10.34
2022-10-04T16:56:24.740Z,10.20
2022-10-04T16:59:41.967Z,10.22
2022-10-04T17:03:03.825Z,9.92
2022-10-04T17:06:14.747Z,9.71
2022-10-04T17:09:30.059Z,9.76
2022-10-04T17:12:51.152Z,9.56
2022-10-04T17:16:06.028Z,9.47
2022-10-04T17:19:31.807Z,9.45
2022-10-04T17:22:56.964Z,9.17
2022-10-04T17:26:29.949Z,9.18
2022-10-04T17:30:11.842Z,9.11
2022-10-04T17:33:44.254Z,8.98
2022-10-04T17:36:56.271Z,8.95
2022-10-04T17:40:11.737Z,8.82
2022-10-04T17:43:41.935Z,8.84
2022-10-04T17:47:14.579Z,8.78
2022-10-04T17:51:08.241Z,8.63
2022-10-04T17:54:40.896Z,8.64
2022-10-04T17:58:24.093Z,8.49
2022-10-04T18:01:45.813Z,8.30
2022-10-04T18:04:53.123Z,8.22
2022-10-04T18:08:44.490Z,8.39
2022-10-04T18:12:10.191Z,8.27
2022-10-04T18:15:32.024Z,8.23
2022-10-04T18:18:41.811Z,8.13
2022-10-04T18:21:49.420Z,7.93
2022-10-04T18:25:15.566Z,7.96
2022-10-04T18:28:20.723Z,7.87
2022-10-04T18:31:37.299Z,7.89
2022-10-04T18:34:36.382Z,7.67
2022-10-04T18:37:39.031Z,7.75
2022-10-04T18:40:42.964Z,7.66
2022-10-04T18:44:05.062Z,7.67
2022-10-04T18:47:14.347Z,7.73
2022-10-04T18:50:44.730Z,7.75
2022-10-04T18:53:44.282Z,7.74
2022-10-04T18:57:04.715Z,7.64
2022-10-04T19:00:30.560Z,7.36
2022-10-04T19:03:37.051Z,7.36
2022-10-04T19:06:38.208Z,7.56
2022-10-04T19:10:01.105Z,7.62
2022-10-04T19:13:08.177Z,7.41
2022-10-04T19:16:31.203Z,7.39
2022-10-04T19:19:49.427Z,7.27
2022-10-04T19:22:52.059Z,7.05
2022-10-04T19:26:31.268Z,7.26
2022-10-04T19:29:41.150Z,7.18
2022-10-04T19:32:57.451Z,7.07
2022-10-04T19:36:52.697Z,7.07
2022-10-04T19:40:24.674Z,7.10
2022-10-04T19:43:31.989Z,7.12
2022-10-04T19:47:02.563Z,7.34
2022-10-04T19:50:32.610Z,7.21
2022-10-04T19:53:44.293Z,7.02
2022-10-04T19:56:49.526Z,6.98
2022-10-04T19:59:48.394Z,7.06
2022-10-04T20:02:48.740Z,6.85
2022-10-04T20:05:53.263Z,6.75
2022-10-04T20:09:24.475Z,6.79
2022-10-04T20:12:41.359Z,6.63
2022-10-04T20:15:38.466Z,6.70
2022-10-04T20:18:57.703Z,6.61
2022-10-04T20:21:55.804Z,6.64
2022-10-04T20:24:52.781Z,6.56
2022-10-04T20:27:49.469Z,6.64
2022-10-04T20:30:52.391Z,6.56
2022-10-04T20:33:50.536Z,6.63
2022-10-04T20:36:51.932Z,6.52
2022-10-04T20:39:51.209Z,6.52
2022-10-04T20:43:15.035Z,6.53
2022-10-04T20:46:23.675Z,6.41
2022-10-04T20:49:20.548Z,6.34
2022-10-04T20:52:17.664Z,6.28
2022-10-04T20:55:28.164Z,6.30
2022-10-04T20:58:35.381Z,6.08
2022-10-04T21:01:35.562Z,6.13
2022-10-04T21:04:33.520Z,6.23
2022-10-04T21:07:30.954Z,6.35
2022-10-04T21:10:28.593Z,6.43
2022-10-04T21:13:49.184Z,6.28
2022-10-04T21:16:48.784Z,6.54
2022-10-04T21:19:46.240Z,6.38
2022-10-04T21:22:43.130Z,6.05
2022-10-04T21:25:40.015Z,6.07
2022-10-04T21:28:36.861Z,6.10
2022-10-04T21:31:34.064Z,6.13
2022-10-04T21:34:51.827Z,6.01
2022-10-04T21:37:47.788Z,5.83
2022-10-04T21:40:44.618Z,5.85
2022-10-04T21:43:41.432Z,5.80
2022-10-04T21:46:38.538Z,5.87
2022-10-04T21:49:35.460Z,5.75
2022-10-04T21:52:32.272Z,5.76
2022-10-04T21:55:29.082Z,5.69
2022-10-04T21:58:25.943Z,5.74
2022-10-04T22:01:23.509Z,5.70
2022-10-04T22:04:20.386Z,5.64
2022-10-04T22:07:17.212Z,5.36
2022-10-04T22:10:14.131Z,5.53
2022-10-04T22:13:10.950Z,5.64
2022-10-04T22:16:08.490Z,5.75
2022-10-04T22:19:05.371Z,5.63
2022-10-04T22:22:02.224Z,5.54
2022-10-04T22:24:59.914Z,5.37
2022-10-04T22:27:56.777Z,5.32
2022-10-04T22:30:55.814Z,5.44
2022-10-04T22:33:53.155Z,5.57
2022-10-04T22:36:52.963Z,5.37
2022-10-04T22:39:53.494Z,5.37
2022-10-04T22:42:56.105Z,5.47
2022-10-04T22:45:54.683Z,5.58
2022-10-04T22:48:51.533Z,5.36
2022-10-04T22:51:50.569Z,5.49
2022-10-04T22:54:50.766Z,5.27
2022-10-04T22:57:47.724Z,5.41
2022-10-04T23:00:45.445Z,5.41
2022-10-04T23:03:47.703Z,5.50
2022-10-04T23:06:44.853Z,5.34
2022-10-04T23:09:41.839Z,5.37
2022-10-04T23:12:40.698Z,5.33
2022-10-04T23:15:37.521Z,5.41
2022-10-04T23:18:34.346Z,5.41
2022-10-04T23:21:35.132Z,5.36
2022-10-04T23:24:31.933Z,5.53
2022-10-04T23:27:29.260Z,5.35
2022-10-04T23:30:26.388Z,5.26
2022-10-04T23:33:23.962Z,5.32
2022-10-04T23:36:21.580Z,5.23
2022-10-04T23:39:33.806Z,5.35
2022-10-04T23:42:33.437Z,5.34
2022-10-04T23:45:30.609Z,5.16
2022-10-04T23:48:29.320Z,5.27
2022-10-04T23:51:26.188Z,5.11
2022-10-04T23:54:23.010Z,5.13
2022-10-04T23:57:27.923Z,5.24
